KHYS/HYS METAR and TAF weather

Enter ICAO airport designator
Station Type Date Time Source
KHYS METAR 2021/06/24 05:56 UTC NOAA

KHYS 240556Z AUTO 15013KT 10SM CLR 29/19 A2975 RMK AO2 LTG DSNT S AND W SLP050 T02890194 10367 20289 403670178 50000


Station Type Date Time Source
KHYS Decoded METAR 2021/06/24 05:56 UTC NOAA

Hays, Hays Regional Airport, KS, United States (KHYS) 38-51N 099-16W
Jun 24, 2021 - 01:56 AM EDT / 2021.06.24 0556 UTC
Wind: from the SSE (150 degrees) at 15 MPH (13 KT):0
Visibility: 10 mile(s):0
Sky conditions: clear
Weather: Lightning observed
Temperature: 84.0 F (28.9 C)
Dew Point: 66.9 F (19.4 C)
Relative Humidity: 56%
Pressure (altimeter): 29.75 in. Hg (1007 hPa)
Pressure tendency: 0.00 inches (0.0 hPa) higher than three hours ago
ob: KHYS 240556Z AUTO 15013KT 10SM CLR 29/19 A2975 RMK AO2 LTG DSNT S AND W SLP050 T02890194 10367 20289 403670178 50000
cycle: 6

Station Type Date Time Source
KHYS TAF 2021/06/24 06:22 UTC NOAA

TAF KHYS 240520Z 2406/2506 17016G25KT P6SM SCT250 WS020/20050KT
FM241200 08013KT P6SM SCT200
FM250200 02014G22KT P6SM SCT200

Example: see airport list